Time;durP1;ratioP1;P1;durP2;ratioP2;P2;SDS_P1;SDS_P2;PMS_P1;PMS_P2;Temp;Humidity;BMP_temperature;BMP_pressure;BME280_temperature;BME280_humidity;BME280_pressure;Samples;Min_cycle;Max_cycle;Signal;HPM_P1;HPM_P2
2023/07/28 00:02:19;;;;;;;1.85;1.75;;;20.40;99.90;;;;;;939772;150;27334;-73
2023/07/28 00:04:45;;;;;;;1.98;1.87;;;20.40;99.90;;;;;;938660;150;27403;-73
2023/07/28 00:07:12;;;;;;;1.82;1.72;;;20.40;99.90;;;;;;939398;152;27369;-73
2023/07/28 00:09:38;;;;;;;1.98;1.77;;;20.40;99.90;;;;;;936965;153;27342;-73
2023/07/28 00:12:05;;;;;;;1.82;1.72;;;20.40;99.90;;;;;;954087;148;27449;-73
2023/07/28 00:14:32;;;;;;;1.87;1.77;;;20.40;99.90;;;;;;953922;148;27429;-73
2023/07/28 00:16:58;;;;;;;1.75;1.65;;;20.40;99.90;;;;;;937297;151;27386;-73
2023/07/28 00:19:25;;;;;;;2.00;1.90;;;20.40;99.90;;;;;;953528;147;27338;-73
2023/07/28 00:21:51;;;;;;;1.70;1.60;;;20.40;99.90;;;;;;954105;147;27425;-73
2023/07/28 00:24:18;;;;;;;1.65;1.55;;;20.40;99.90;;;;;;927707;151;27420;-73
2023/07/28 00:26:45;;;;;;;2.25;2.05;;;20.40;99.90;;;;;;954328;148;27296;-73
2023/07/28 00:29:11;;;;;;;1.90;1.80;;;20.40;99.90;;;;;;953961;147;27827;-73
2023/07/28 00:31:38;;;;;;;2.02;1.70;;;20.40;99.90;;;;;;949583;148;27326;-73
2023/07/28 00:34:04;;;;;;;1.72;1.62;;;20.40;99.90;;;;;;954066;148;27825;-73
2023/07/28 00:36:31;;;;;;;1.55;1.45;;;20.40;99.90;;;;;;954077;150;27299;-73
2023/07/28 00:38:58;;;;;;;1.82;1.72;;;20.40;99.90;;;;;;953152;147;27316;-73
2023/07/28 00:41:24;;;;;;;1.82;1.72;;;20.30;99.90;;;;;;953506;147;27862;-73
2023/07/28 00:43:51;;;;;;;2.25;1.95;;;20.40;99.90;;;;;;949835;148;27326;-73
2023/07/28 00:46:17;;;;;;;2.72;1.77;;;20.40;99.90;;;;;;937348;150;27420;-73
2023/07/28 00:48:44;;;;;;;1.75;1.65;;;20.40;99.90;;;;;;953351;147;27304;-73
2023/07/28 00:51:11;;;;;;;1.90;1.80;;;20.30;99.90;;;;;;946841;148;27418;-73
2023/07/28 00:53:37;;;;;;;2.45;1.82;;;20.40;99.90;;;;;;947080;151;27411;-73
2023/07/28 00:56:04;;;;;;;1.77;1.67;;;20.30;99.90;;;;;;946285;148;27296;-73
2023/07/28 00:58:30;;;;;;;1.80;1.70;;;20.40;99.90;;;;;;957162;146;27362;-73
2023/07/28 01:00:57;;;;;;;2.25;1.57;;;20.30;99.90;;;;;;963809;146;27331;-73
2023/07/28 01:03:23;;;;;;;2.55;1.85;;;20.30;99.90;;;;;;963643;146;27361;-73
2023/07/28 01:06:11;;;;;;;1.77;1.67;;;20.30;99.90;;;;;;962909;146;27685;-73
2023/07/28 01:08:47;;;;;;;1.80;1.70;;;20.30;99.90;;;;;;937023;146;27315;-73
2023/07/28 01:11:13;;;;;;;1.87;1.70;;;20.40;99.90;;;;;;961883;146;27305;-72
2023/07/28 01:13:40;;;;;;;2.17;1.60;;;20.30;99.90;;;;;;963304;146;27354;-73
2023/07/28 01:16:07;;;;;;;1.90;1.80;;;20.40;99.90;;;;;;963494;146;27342;-72
2023/07/28 01:18:33;;;;;;;1.85;1.75;;;20.30;99.90;;;;;;963210;146;27740;-72
2023/07/28 01:21:00;;;;;;;3.60;2.12;;;20.40;99.90;;;;;;963312;146;27401;-73
2023/07/28 01:23:54;;;;;;;1.52;1.42;;;20.30;99.90;;;;;;962810;146;27342;-72
2023/07/28 01:26:26;;;;;;;2.30;1.87;;;20.30;99.90;;;;;;962925;146;27350;-73
2023/07/28 01:28:53;;;;;;;1.98;1.85;;;20.30;99.90;;;;;;961351;146;27449;-72
2023/07/28 01:31:19;;;;;;;2.98;2.00;;;20.30;99.90;;;;;;963737;146;27420;-72
2023/07/28 01:33:46;;;;;;;2.05;1.95;;;20.30;99.90;;;;;;963442;146;27304;-72
2023/07/28 01:36:12;;;;;;;2.83;2.05;;;20.30;99.90;;;;;;963544;146;27422;-73
2023/07/28 01:38:39;;;;;;;1.72;1.62;;;20.30;99.90;;;;;;963288;146;27447;-73
2023/07/28 01:41:06;;;;;;;1.90;1.80;;;20.30;99.90;;;;;;962731;146;27350;-72
2023/07/28 01:43:32;;;;;;;2.05;1.80;;;20.30;99.90;;;;;;962870;146;27330;-72
2023/07/28 01:45:59;;;;;;;1.80;1.70;;;20.30;99.90;;;;;;963695;146;27322;-73
2023/07/28 01:48:25;;;;;;;1.92;1.82;;;20.20;99.90;;;;;;963280;146;27342;-72
2023/07/28 01:50:52;;;;;;;2.10;2.00;;;20.30;99.90;;;;;;962981;146;27374;-73
2023/07/28 01:53:19;;;;;;;2.02;1.92;;;20.20;99.90;;;;;;963231;146;27313;-73
2023/07/28 01:55:45;;;;;;;2.02;1.82;;;20.20;99.90;;;;;;963250;146;27321;-72
2023/07/28 01:58:12;;;;;;;2.00;1.90;;;20.20;99.90;;;;;;959302;146;27487;-72
2023/07/28 02:00:38;;;;;;;2.25;2.00;;;20.20;99.90;;;;;;948261;147;27332;-72
2023/07/28 02:03:05;;;;;;;1.98;1.87;;;20.20;99.90;;;;;;942036;149;27434;-73
2023/07/28 02:05:32;;;;;;;2.17;2.02;;;20.20;99.90;;;;;;942293;149;27345;-72
2023/07/28 02:07:58;;;;;;;2.35;1.90;;;20.10;99.90;;;;;;947885;147;27297;-72
2023/07/28 02:10:25;;;;;;;2.58;2.00;;;20.10;99.90;;;;;;948392;148;27383;-72
2023/07/28 02:12:51;;;;;;;2.40;2.20;;;20.10;99.90;;;;;;947968;148;27437;-72
2023/07/28 02:15:18;;;;;;;2.05;1.82;;;20.10;99.90;;;;;;948010;148;27371;-72
2023/07/28 02:17:44;;;;;;;1.98;1.87;;;20.10;99.90;;;;;;948555;148;27683;-74
2023/07/28 02:20:12;;;;;;;2.30;2.10;;;20.10;99.90;;;;;;948428;148;27470;-75
2023/07/28 02:22:38;;;;;;;1.80;1.70;;;20.10;99.90;;;;;;947823;148;27357;-75
2023/07/28 02:25:04;;;;;;;2.08;1.95;;;20.10;99.90;;;;;;947883;148;27475;-76
2023/07/28 02:27:31;;;;;;;2.37;2.20;;;20.10;99.90;;;;;;948321;148;27335;-75
2023/07/28 02:29:57;;;;;;;2.30;2.17;;;20.10;99.90;;;;;;948046;148;27289;-75
2023/07/28 02:32:24;;;;;;;2.12;1.92;;;20.10;99.90;;;;;;948928;148;27356;-75
2023/07/28 02:34:51;;;;;;;3.20;1.98;;;20.10;99.90;;;;;;949424;147;27480;-75
2023/07/28 02:37:17;;;;;;;1.87;1.67;;;20.10;99.90;;;;;;949884;147;27400;-75
2023/07/28 02:39:44;;;;;;;1.98;1.87;;;20.10;99.90;;;;;;950782;147;27297;-75
2023/07/28 02:42:10;;;;;;;1.95;1.82;;;20.20;99.90;;;;;;926429;150;27365;-75
2023/07/28 02:44:37;;;;;;;1.80;1.70;;;20.20;99.90;;;;;;942553;149;27373;-75
2023/07/28 02:47:03;;;;;;;2.37;1.70;;;20.20;99.90;;;;;;942239;149;27334;-75
2023/07/28 02:49:30;;;;;;;3.02;1.80;;;20.20;99.90;;;;;;942075;149;27502;-75
2023/07/28 02:51:57;;;;;;;1.92;1.82;;;20.20;99.90;;;;;;942097;149;27365;-75
2023/07/28 02:54:25;;;;;;;1.80;1.70;;;20.20;99.90;;;;;;928767;149;28092;-75
2023/07/28 02:56:50;;;;;;;2.20;2.00;;;20.20;99.90;;;;;;949802;147;27332;-75
2023/07/28 02:59:16;;;;;;;2.00;1.80;;;20.20;99.90;;;;;;955682;146;27370;-75
2023/07/28 03:01:43;;;;;;;1.80;1.70;;;20.20;99.90;;;;;;944482;148;27312;-75
2023/07/28 03:04:10;;;;;;;2.17;1.92;;;20.20;99.90;;;;;;962749;146;27432;-75
2023/07/28 03:06:36;;;;;;;2.05;1.87;;;20.20;99.90;;;;;;943224;149;27347;-75
2023/07/28 03:09:03;;;;;;;1.95;1.85;;;20.20;99.90;;;;;;962939;146;27407;-76
2023/07/28 03:11:29;;;;;;;2.08;1.90;;;20.20;99.90;;;;;;946056;148;27493;-75
2023/07/28 03:13:56;;;;;;;2.12;2.02;;;20.20;99.90;;;;;;963292;146;27341;-75
2023/07/28 03:16:23;;;;;;;2.50;1.85;;;20.10;99.90;;;;;;963478;146;27351;-75
2023/07/28 03:18:49;;;;;;;1.98;1.87;;;20.10;99.90;;;;;;965938;145;27398;-75
2023/07/28 03:21:16;;;;;;;2.35;1.90;;;20.20;99.90;;;;;;945054;148;27333;-75
2023/07/28 03:23:42;;;;;;;2.22;1.95;;;20.10;99.90;;;;;;963111;146;27418;-75
2023/07/28 03:26:09;;;;;;;2.42;2.22;;;20.10;99.90;;;;;;966816;145;27426;-75
2023/07/28 03:28:35;;;;;;;3.05;2.30;;;20.10;99.90;;;;;;953632;147;27331;-76
2023/07/28 03:31:02;;;;;;;1.80;1.70;;;20.10;99.90;;;;;;946313;148;27335;-75
2023/07/28 03:33:29;;;;;;;1.87;1.77;;;20.10;99.90;;;;;;945776;149;27935;-75
2023/07/28 03:35:55;;;;;;;1.67;1.57;;;20.10;99.90;;;;;;963123;146;27443;-75
2023/07/28 03:38:22;;;;;;;1.70;1.60;;;20.10;99.90;;;;;;941418;148;27365;-75
2023/07/28 03:40:49;;;;;;;1.70;1.60;;;20.10;99.90;;;;;;962898;146;27447;-75
2023/07/28 03:43:15;;;;;;;2.00;1.80;;;20.10;99.90;;;;;;947049;148;27413;-75
2023/07/28 03:45:42;;;;;;;1.47;1.37;;;20.10;99.90;;;;;;946581;148;27330;-75
2023/07/28 03:48:08;;;;;;;2.20;2.10;;;20.10;99.90;;;;;;946194;148;27358;-75
2023/07/28 03:50:35;;;;;;;1.87;1.67;;;20.10;99.90;;;;;;942490;149;27429;-75
2023/07/28 03:53:01;;;;;;;1.90;1.80;;;20.10;99.90;;;;;;961439;149;27398;-75
2023/07/28 03:55:28;;;;;;;2.00;1.90;;;20.10;99.90;;;;;;961457;148;27399;-76
2023/07/28 03:57:55;;;;;;;1.80;1.70;;;20.00;99.90;;;;;;961484;148;27373;-75
2023/07/28 04:00:21;;;;;;;1.62;1.52;;;20.00;99.90;;;;;;938337;149;27422;-75
2023/07/28 04:02:48;;;;;;;1.95;1.85;;;20.10;99.90;;;;;;949681;147;27397;-75
2023/07/28 04:05:14;;;;;;;2.62;1.60;;;20.10;99.90;;;;;;926292;150;27333;-75
2023/07/28 04:07:41;;;;;;;1.80;1.70;;;20.10;99.90;;;;;;950448;147;27734;-75
2023/07/28 04:10:08;;;;;;;2.52;1.87;;;20.10;99.90;;;;;;926364;150;27477;-75
2023/07/28 04:12:34;;;;;;;1.50;1.40;;;20.10;99.90;;;;;;926266;150;27308;-76
2023/07/28 04:15:01;;;;;;;2.00;1.80;;;20.10;99.90;;;;;;942030;149;27407;-75
2023/07/28 04:17:27;;;;;;;1.82;1.72;;;20.10;99.90;;;;;;942589;149;27719;-75
2023/07/28 04:19:54;;;;;;;1.77;1.67;;;20.10;99.90;;;;;;942254;149;27462;-75
2023/07/28 04:22:21;;;;;;;1.92;1.82;;;20.10;99.90;;;;;;941943;149;27484;-75
2023/07/28 04:24:47;;;;;;;2.08;1.57;;;20.10;99.90;;;;;;926581;150;27348;-75
2023/07/28 04:27:14;;;;;;;1.90;1.80;;;20.10;99.90;;;;;;926151;150;27430;-75
2023/07/28 04:29:40;;;;;;;1.60;1.50;;;20.10;99.90;;;;;;945491;149;27446;-75
2023/07/28 04:32:07;;;;;;;1.87;1.77;;;20.10;99.90;;;;;;945615;149;27425;-75
2023/07/28 04:34:33;;;;;;;2.05;1.87;;;20.10;99.90;;;;;;945477;149;27381;-75
2023/07/28 04:37:00;;;;;;;2.17;2.00;;;20.20;99.90;;;;;;945515;149;27719;-75
2023/07/28 04:39:27;;;;;;;1.80;1.70;;;20.20;99.90;;;;;;945706;149;27422;-75
2023/07/28 04:41:53;;;;;;;1.80;1.70;;;20.20;99.90;;;;;;945782;149;27894;-75
2023/07/28 04:44:20;;;;;;;2.27;1.70;;;20.20;99.90;;;;;;944112;149;27340;-75
2023/07/28 04:46:49;;;;;;;1.32;1.27;;;20.20;99.90;;;;;;945657;149;27322;-75
2023/07/28 04:49:16;;;;;;;1.40;1.30;;;20.20;99.90;;;;;;946114;149;27341;-75
2023/07/28 04:51:42;;;;;;;1.62;1.52;;;20.30;99.90;;;;;;945141;149;27360;-75
2023/07/28 04:54:09;;;;;;;1.50;1.40;;;20.30;99.90;;;;;;945664;149;27414;-75
2023/07/28 04:56:35;;;;;;;1.47;1.37;;;20.40;99.90;;;;;;945600;149;27293;-75
2023/07/28 04:59:02;;;;;;;1.65;1.50;;;20.40;99.90;;;;;;945543;149;27426;-75
2023/07/28 05:01:29;;;;;;;1.60;1.50;;;20.40;99.90;;;;;;943771;149;27393;-75
2023/07/28 05:03:55;;;;;;;1.57;1.50;;;20.50;99.90;;;;;;942330;150;27369;-75
2023/07/28 05:06:22;;;;;;;1.42;1.32;;;20.50;99.90;;;;;;947016;148;27300;-75
2023/07/28 05:08:48;;;;;;;1.77;1.67;;;20.60;99.90;;;;;;947073;151;27351;-75
2023/07/28 05:11:15;;;;;;;1.75;1.65;;;20.60;99.90;;;;;;946481;148;27320;-75
2023/07/28 05:13:42;;;;;;;1.60;1.50;;;20.70;99.90;;;;;;953835;148;27347;-75
2023/07/28 05:16:08;;;;;;;1.80;1.70;;;20.70;99.90;;;;;;954282;149;27324;-75
2023/07/28 05:18:35;;;;;;;1.50;1.27;;;20.70;99.90;;;;;;953276;148;27361;-75
2023/07/28 05:21:01;;;;;;;3.50;1.40;;;20.80;99.90;;;;;;953781;148;27426;-75
2023/07/28 05:23:28;;;;;;;1.55;1.47;;;20.80;99.90;;;;;;935104;150;27368;-75
2023/07/28 05:25:55;;;;;;;1.52;1.42;;;20.90;99.90;;;;;;937461;151;27448;-75
2023/07/28 05:28:21;;;;;;;1.40;1.32;;;20.90;99.90;;;;;;953676;148;27423;-75
2023/07/28 05:30:48;;;;;;;1.80;1.60;;;20.90;99.90;;;;;;949511;148;27412;-75
2023/07/28 05:33:14;;;;;;;1.22;1.20;;;21.00;99.90;;;;;;937216;150;27455;-75
2023/07/28 05:35:41;;;;;;;1.65;1.55;;;21.00;99.90;;;;;;954031;148;27439;-75
2023/07/28 05:38:07;;;;;;;1.35;1.25;;;21.10;99.90;;;;;;928340;151;27449;-75
2023/07/28 05:40:34;;;;;;;1.55;1.47;;;21.10;99.90;;;;;;954189;147;27324;-75
2023/07/28 05:43:01;;;;;;;1.40;1.30;;;21.20;99.90;;;;;;950166;148;27267;-75
2023/07/28 05:45:27;;;;;;;1.35;1.25;;;21.20;99.90;;;;;;934696;153;27918;-75
2023/07/28 05:47:54;;;;;;;2.80;1.85;;;21.20;99.90;;;;;;953274;150;27343;-75
2023/07/28 05:50:21;;;;;;;1.17;1.17;;;21.30;99.90;;;;;;949514;148;27331;-75
2023/07/28 05:52:47;;;;;;;1.52;1.42;;;21.30;99.90;;;;;;937159;150;27450;-75
2023/07/28 05:55:14;;;;;;;1.37;1.25;;;21.40;99.90;;;;;;936319;151;27364;-75
2023/07/28 05:57:40;;;;;;;1.70;1.60;;;21.40;99.90;;;;;;937910;151;27364;-75
2023/07/28 06:00:09;;;;;;;1.45;1.35;;;21.40;99.90;;;;;;936926;151;27422;-75
2023/07/28 06:02:33;;;;;;;1.50;1.40;;;21.40;99.90;;;;;;945051;148;27771;-75
2023/07/28 06:05:00;;;;;;;1.47;1.37;;;21.50;99.90;;;;;;963611;146;27326;-75
2023/07/28 06:07:27;;;;;;;1.20;1.20;;;21.50;99.90;;;;;;963141;146;27347;-75
2023/07/28 06:09:53;;;;;;;1.17;1.17;;;21.50;99.90;;;;;;945539;148;27449;-75
2023/07/28 06:12:20;;;;;;;1.37;1.37;;;21.50;99.90;;;;;;962834;145;27394;-75
2023/07/28 06:14:46;;;;;;;1.92;1.70;;;21.50;99.90;;;;;;962807;146;27303;-75
2023/07/28 06:17:13;;;;;;;1.50;1.40;;;21.50;99.90;;;;;;946164;148;27426;-76
2023/07/28 06:19:40;;;;;;;1.32;1.22;;;21.60;99.90;;;;;;962850;146;27339;-76
2023/07/28 06:22:06;;;;;;;1.72;1.62;;;21.60;99.90;;;;;;963088;146;27391;-76
2023/07/28 06:24:33;;;;;;;1.70;1.50;;;21.60;99.90;;;;;;942222;149;27479;-76
2023/07/28 06:26:59;;;;;;;1.77;1.27;;;21.60;99.90;;;;;;962618;146;27451;-76
2023/07/28 06:29:26;;;;;;;1.50;1.40;;;21.70;99.90;;;;;;962388;146;27350;-76
2023/07/28 06:31:52;;;;;;;1.50;1.40;;;21.70;99.90;;;;;;945983;148;27441;-71
2023/07/28 06:34:19;;;;;;;1.60;1.50;;;21.70;99.90;;;;;;945902;148;27853;-72
2023/07/28 06:36:46;;;;;;;1.47;1.37;;;21.80;99.90;;;;;;942340;149;27334;-72
2023/07/28 06:39:12;;;;;;;1.67;1.57;;;21.80;99.90;;;;;;962925;145;27350;-72
2023/07/28 06:41:39;;;;;;;1.22;1.22;;;21.80;99.90;;;;;;962253;146;27327;-72
2023/07/28 06:44:06;;;;;;;1.20;1.20;;;21.90;99.90;;;;;;962987;146;27347;-72
2023/07/28 06:46:32;;;;;;;1.17;1.17;;;22.00;99.90;;;;;;965707;145;27311;-72
2023/07/28 06:48:59;;;;;;;2.10;1.20;;;22.00;99.90;;;;;;945112;148;27447;-72
2023/07/28 06:51:25;;;;;;;1.47;1.40;;;22.20;99.90;;;;;;963074;146;27315;-72
2023/07/28 06:53:52;;;;;;;1.80;1.30;;;22.30;99.90;;;;;;962275;145;27312;-72
2023/07/28 06:56:18;;;;;;;1.20;1.10;;;22.40;99.90;;;;;;945436;148;27344;-72
2023/07/28 06:58:45;;;;;;;1.20;1.20;;;22.50;99.90;;;;;;962734;146;27438;-72
2023/07/28 07:01:12;;;;;;;1.35;1.25;;;22.60;99.90;;;;;;962729;145;27427;-72
2023/07/28 07:03:38;;;;;;;1.40;1.30;;;22.70;99.90;;;;;;967790;145;27694;-72
2023/07/28 07:06:05;;;;;;;2.22;1.27;;;22.80;99.90;;;;;;967595;145;27387;-72
2023/07/28 07:08:32;;;;;;;1.30;1.20;;;22.90;99.90;;;;;;967509;145;27406;-72
2023/07/28 07:10:58;;;;;;;1.27;1.17;;;23.00;99.90;;;;;;967210;145;27358;-72
2023/07/28 07:13:25;;;;;;;1.15;1.12;;;23.20;99.90;;;;;;967997;145;27287;-72
2023/07/28 07:15:51;;;;;;;0.95;0.90;;;23.30;99.90;;;;;;968046;145;27411;-72
2023/07/28 07:18:18;;;;;;;1.25;1.02;;;23.40;99.90;;;;;;967451;145;27315;-72
2023/07/28 07:20:44;;;;;;;0.85;0.85;;;23.50;99.90;;;;;;968321;145;27350;-72
2023/07/28 07:23:11;;;;;;;2.33;0.90;;;23.60;99.90;;;;;;967438;145;27328;-72
2023/07/28 07:25:37;;;;;;;1.72;0.88;;;23.60;99.90;;;;;;968295;145;27391;-72
2023/07/28 07:28:04;;;;;;;1.35;0.90;;;23.70;99.90;;;;;;967869;145;27282;-72
2023/07/28 07:30:31;;;;;;;0.90;0.90;;;23.70;99.90;;;;;;950643;148;27348;-72
2023/07/28 07:32:57;;;;;;;0.90;0.90;;;23.80;99.90;;;;;;966373;145;27339;-72
2023/07/28 07:35:24;;;;;;;0.95;0.95;;;23.80;99.90;;;;;;966704;145;27458;-72
2023/07/28 07:37:50;;;;;;;0.90;0.90;;;23.90;99.90;;;;;;959134;147;27311;-72
2023/07/28 07:40:17;;;;;;;1.17;1.10;;;23.90;99.90;;;;;;967530;145;27358;-72
2023/07/28 07:42:44;;;;;;;0.75;0.75;;;24.00;99.90;;;;;;943494;148;27388;-72
2023/07/28 07:45:10;;;;;;;0.80;0.80;;;24.00;99.90;;;;;;944102;147;27345;-72
2023/07/28 07:47:37;;;;;;;0.88;0.88;;;24.10;99.90;;;;;;967503;145;27315;-72
2023/07/28 07:50:04;;;;;;;0.68;0.68;;;24.20;99.90;;;;;;958504;147;27311;-72
2023/07/28 07:52:30;;;;;;;2.02;0.95;;;24.20;99.90;;;;;;967100;145;27337;-72
2023/07/28 07:54:57;;;;;;;0.88;0.82;;;24.30;99.90;;;;;;951496;147;27416;-72
2023/07/28 07:57:23;;;;;;;0.90;0.80;;;24.50;99.90;;;;;;951612;147;27359;-73
2023/07/28 07:59:50;;;;;;;0.60;0.60;;;24.70;99.90;;;;;;951108;147;27324;-73
2023/07/28 08:02:16;;;;;;;1.27;1.17;;;24.80;99.90;;;;;;949928;148;27397;-72
2023/07/28 08:04:43;;;;;;;0.80;0.80;;;24.90;99.90;;;;;;962889;146;27408;-72
2023/07/28 08:07:10;;;;;;;0.88;0.88;;;25.00;99.90;;;;;;963214;146;27303;-72
2023/07/28 08:09:37;;;;;;;0.78;0.78;;;25.20;99.90;;;;;;946939;148;27332;-72
2023/07/28 08:12:03;;;;;;;2.15;0.98;;;25.30;99.90;;;;;;944483;148;27297;-73
2023/07/28 08:14:29;;;;;;;0.68;0.68;;;25.40;99.90;;;;;;966329;145;27430;-72
2023/07/28 08:16:56;;;;;;;0.70;0.70;;;25.50;99.90;;;;;;962791;146;27407;-72
2023/07/28 08:19:22;;;;;;;0.95;0.90;;;25.60;99.90;;;;;;966068;145;27737;-72
2023/07/28 08:21:49;;;;;;;0.90;0.90;;;25.70;99.90;;;;;;963170;145;27307;-73
2023/07/28 08:24:16;;;;;;;0.70;0.70;;;25.80;99.90;;;;;;963585;146;27434;-72
2023/07/28 08:26:42;;;;;;;0.70;0.70;;;25.90;99.90;;;;;;962087;146;27755;-73
2023/07/28 08:29:09;;;;;;;0.98;0.80;;;26.10;99.90;;;;;;946468;148;27345;-72
2023/07/28 08:31:36;;;;;;;0.80;0.70;;;26.10;99.90;;;;;;962762;146;27339;-74
2023/07/28 08:34:02;;;;;;;0.50;0.50;;;26.20;99.90;;;;;;946022;148;27384;-74
2023/07/28 08:36:29;;;;;;;0.72;0.72;;;26.30;99.70;;;;;;946340;148;27437;-74
2023/07/28 08:38:55;;;;;;;0.55;0.55;;;26.20;98.80;;;;;;946233;148;27319;-74
2023/07/28 08:41:22;;;;;;;0.85;0.85;;;26.20;98.50;;;;;;946039;148;27345;-74
2023/07/28 08:43:50;;;;;;;1.17;0.65;;;26.20;98.60;;;;;;946301;148;27364;-73
2023/07/28 08:46:15;;;;;;;1.30;1.00;;;26.10;98.60;;;;;;942223;149;27459;-74
2023/07/28 08:48:42;;;;;;;1.35;0.98;;;26.10;99.10;;;;;;961682;146;27436;-74
2023/07/28 08:51:08;;;;;;;1.42;0.80;;;26.10;99.50;;;;;;962052;146;27404;-74
2023/07/28 08:53:35;;;;;;;0.62;0.62;;;26.20;99.90;;;;;;962601;146;27311;-74
2023/07/28 08:56:01;;;;;;;0.75;0.75;;;26.50;99.90;;;;;;965810;145;27351;-74
2023/07/28 08:58:28;;;;;;;0.82;0.65;;;26.80;99.90;;;;;;945351;148;28104;-74
2023/07/28 09:00:55;;;;;;;0.70;0.70;;;27.20;99.90;;;;;;962914;146;27307;-74
2023/07/28 09:03:22;;;;;;;0.60;0.60;;;27.70;99.90;;;;;;940309;149;27393;-74
2023/07/28 09:05:48;;;;;;;0.60;0.60;;;28.30;99.90;;;;;;949511;147;27393;-74
2023/07/28 09:08:14;;;;;;;1.12;0.70;;;29.00;99.90;;;;;;949573;147;27752;-74
2023/07/28 09:10:42;;;;;;;0.37;0.37;;;29.60;99.90;;;;;;940665;148;27445;-74
2023/07/28 09:13:07;;;;;;;0.60;0.60;;;30.40;99.30;;;;;;948754;147;27619;-74
2023/07/28 09:15:34;;;;;;;0.50;0.50;;;31.10;97.80;;;;;;925461;150;26244;-74
2023/07/28 09:18:01;;;;;;;0.50;0.50;;;31.90;95.90;;;;;;945017;148;26355;-74
2023/07/28 09:20:27;;;;;;;0.35;0.35;;;32.60;92.10;;;;;;945173;149;26293;-74
2023/07/28 09:22:54;;;;;;;0.80;0.40;;;33.20;86.30;;;;;;943635;149;26565;-74
2023/07/28 09:25:20;;;;;;;0.57;0.57;;;33.70;82.60;;;;;;945051;148;26314;-74
2023/07/28 09:27:53;;;;;;;0.50;0.50;;;34.10;79.20;;;;;;945372;149;26239;-74
2023/07/28 09:30:20;;;;;;;0.70;0.45;;;34.50;77.90;;;;;;944528;149;27888;-74
2023/07/28 09:32:49;;;;;;;0.50;0.40;;;34.80;76.40;;;;;;944204;149;26430;-74
2023/07/28 09:35:16;;;;;;;0.47;0.40;;;35.00;71.90;;;;;;944004;149;27479;-74
2023/07/28 09:37:42;;;;;;;0.42;0.42;;;35.10;70.00;;;;;;944338;148;26259;-75
2023/07/28 09:40:12;;;;;;;0.68;0.40;;;35.10;68.40;;;;;;943839;149;26386;-75
2023/07/28 09:42:38;;;;;;;0.60;0.53;;;35.00;67.10;;;;;;944114;149;26257;-75
2023/07/28 09:45:05;;;;;;;0.47;0.47;;;34.90;66.00;;;;;;943716;148;27438;-74
2023/07/28 09:47:31;;;;;;;3.02;0.70;;;34.70;65.70;;;;;;945845;149;27306;-74
2023/07/28 09:49:58;;;;;;;0.50;0.50;;;34.60;65.80;;;;;;945039;149;26358;-74
2023/07/28 09:52:25;;;;;;;0.60;0.57;;;34.50;65.70;;;;;;945391;149;27306;-74
2023/07/28 09:54:51;;;;;;;0.62;0.62;;;34.40;65.30;;;;;;945338;149;27343;-74
2023/07/28 09:57:18;;;;;;;0.40;0.40;;;34.30;64.90;;;;;;945376;149;27414;-74
2023/07/28 09:59:44;;;;;;;1.20;0.47;;;34.20;64.30;;;;;;945050;149;27350;-74
2023/07/28 10:02:11;;;;;;;0.62;0.62;;;34.10;64.50;;;;;;945215;149;26272;-74
2023/07/28 10:04:38;;;;;;;1.05;0.60;;;34.10;64.90;;;;;;948696;148;27434;-74
2023/07/28 10:07:04;;;;;;;0.62;0.50;;;34.10;64.70;;;;;;931832;149;27676;-74
2023/07/28 10:09:33;;;;;;;0.90;0.50;;;34.10;64.20;;;;;;946938;146;27303;-74
2023/07/28 10:11:57;;;;;;;0.30;0.30;;;34.20;63.90;;;;;;948129;146;26352;-74
2023/07/28 10:14:28;;;;;;;0.60;0.60;;;34.10;62.60;;;;;;931811;149;27338;-74
2023/07/28 10:16:54;;;;;;;0.45;0.45;;;34.10;61.50;;;;;;949076;146;27343;-74
2023/07/28 10:19:20;;;;;;;0.40;0.40;;;34.00;60.90;;;;;;932301;149;27346;-74
2023/07/28 10:21:47;;;;;;;0.37;0.30;;;33.80;60.60;;;;;;949253;146;27352;-74
2023/07/28 10:24:14;;;;;;;0.82;0.60;;;33.60;60.70;;;;;;931609;149;27451;-74
2023/07/28 10:26:44;;;;;;;0.53;0.40;;;33.40;61.20;;;;;;954297;146;27544;-74
2023/07/28 10:29:13;;;;;;;0.42;0.42;;;33.30;61.40;;;;;;946994;148;27369;-74
2023/07/28 10:31:50;;;;;;;0.40;0.40;;;33.20;61.10;;;;;;946556;148;27427;-74
2023/07/28 10:34:17;;;;;;;0.30;0.30;;;33.20;61.30;;;;;;954829;146;27763;-74
2023/07/28 10:36:44;;;;;;;0.50;0.50;;;33.10;61.40;;;;;;946960;148;27440;-74
2023/07/28 10:39:19;;;;;;;0.30;0.30;;;33.10;61.80;;;;;;946201;148;27437;-74
2023/07/28 10:42:01;;;;;;;0.40;0.40;;;33.00;61.30;;;;;;931479;149;27372;-74
2023/07/28 10:44:27;;;;;;;0.35;0.35;;;33.00;61.00;;;;;;932056;149;27477;-74
2023/07/28 10:46:54;;;;;;;0.50;0.50;;;32.90;61.00;;;;;;932780;149;27425;-74
2023/07/28 10:49:20;;;;;;;0.50;0.50;;;32.70;60.90;;;;;;948587;146;27312;-74
2023/07/28 10:51:47;;;;;;;0.85;0.53;;;32.60;61.00;;;;;;953729;146;27852;-76
2023/07/28 10:54:16;;;;;;;0.45;0.45;;;32.40;60.30;;;;;;933021;149;27382;-76
2023/07/28 10:56:40;;;;;;;0.80;0.80;;;32.20;60.00;;;;;;948193;146;27320;-76
2023/07/28 10:59:07;;;;;;;1.55;0.75;;;32.00;59.70;;;;;;948721;146;27311;-76
2023/07/28 11:01:36;;;;;;;0.90;0.90;;;31.70;59.70;;;;;;949848;146;27405;-76
2023/07/28 11:04:11;;;;;;;0.70;0.70;;;31.40;60.00;;;;;;952174;145;27862;-76
2023/07/28 11:06:39;;;;;;;0.75;0.75;;;31.20;60.60;;;;;;969135;145;27341;-75
2023/07/28 11:09:05;;;;;;;0.80;0.80;;;30.90;61.30;;;;;;968763;145;27376;-76
2023/07/28 11:11:31;;;;;;;0.55;0.55;;;30.70;63.00;;;;;;969489;145;27444;-76
2023/07/28 11:13:58;;;;;;;0.68;0.68;;;30.60;63.90;;;;;;970024;145;27318;-76
2023/07/28 11:16:24;;;;;;;0.82;0.82;;;30.50;64.70;;;;;;951212;148;27338;-76
2023/07/28 11:18:51;;;;;;;1.15;1.10;;;30.30;65.00;;;;;;950548;148;27419;-76
2023/07/28 11:21:17;;;;;;;0.72;0.72;;;30.30;65.20;;;;;;967764;145;27362;-76
2023/07/28 11:23:47;;;;;;;1.00;1.00;;;30.30;65.10;;;;;;968013;145;27449;-76
2023/07/28 11:26:13;;;;;;;2.00;1.00;;;30.30;65.30;;;;;;966895;145;27395;-76
2023/07/28 11:28:40;;;;;;;0.90;0.90;;;30.20;64.90;;;;;;966768;145;27392;-76
2023/07/28 11:31:06;;;;;;;0.90;0.90;;;30.30;64.80;;;;;;966524;145;27411;-76
2023/07/28 11:33:33;;;;;;;1.82;1.10;;;30.30;64.80;;;;;;966278;145;27347;-76
2023/07/28 11:36:00;;;;;;;1.00;1.00;;;30.30;64.60;;;;;;966808;145;27326;-75
2023/07/28 11:38:26;;;;;;;1.05;1.05;;;30.20;64.70;;;;;;966765;145;27318;-76
2023/07/28 11:40:53;;;;;;;1.50;1.40;;;30.20;64.90;;;;;;966582;145;27303;-76
2023/07/28 11:43:19;;;;;;;2.20;1.32;;;30.10;65.20;;;;;;966682;145;27443;-75
2023/07/28 11:45:46;;;;;;;1.20;1.20;;;30.10;66.00;;;;;;966038;145;27323;-75
2023/07/28 11:48:13;;;;;;;2.02;1.30;;;29.90;65.90;;;;;;966306;145;27354;-76
2023/07/28 11:50:39;;;;;;;2.15;1.52;;;29.70;66.20;;;;;;965671;145;27447;-76
2023/07/28 11:53:09;;;;;;;1.47;1.15;;;29.50;66.70;;;;;;966431;145;27718;-76
2023/07/28 11:55:35;;;;;;;1.55;1.45;;;29.30;67.40;;;;;;966849;145;27431;-76
2023/07/28 11:58:04;;;;;;;1.35;1.25;;;29.10;68.00;;;;;;966472;145;27330;-76
2023/07/28 12:00:37;;;;;;;1.67;1.55;;;29.00;68.60;;;;;;965776;145;27285;-76
2023/07/28 12:03:09;;;;;;;1.37;1.27;;;28.90;69.90;;;;;;966940;145;27962;-75
2023/07/28 12:05:35;;;;;;;1.60;1.50;;;28.80;69.90;;;;;;940948;148;27956;-75
2023/07/28 12:08:05;;;;;;;1.60;1.40;;;28.80;69.70;;;;;;949780;147;27438;-75
2023/07/28 12:10:29;;;;;;;1.50;1.40;;;28.70;69.10;;;;;;949763;147;27333;-75
2023/07/28 12:12:55;;;;;;;1.27;1.25;;;28.70;69.20;;;;;;925956;150;27356;-75
2023/07/28 12:15:22;;;;;;;1.30;1.22;;;28.60;69.10;;;;;;941587;149;27357;-75
2023/07/28 12:18:06;;;;;;;2.10;1.30;;;28.50;69.60;;;;;;941331;149;27467;-75
2023/07/28 12:20:33;;;;;;;1.47;1.22;;;28.40;70.70;;;;;;942223;148;27338;-75
2023/07/28 12:23:00;;;;;;;1.05;1.05;;;28.20;69.90;;;;;;950233;147;27352;-75
2023/07/28 12:25:26;;;;;;;1.37;1.27;;;28.10;70.30;;;;;;930022;149;27360;-76
2023/07/28 12:27:53;;;;;;;1.27;1.17;;;27.90;71.70;;;;;;945888;149;27419;-76
2023/07/28 12:30:19;;;;;;;1.87;0.98;;;27.80;72.70;;;;;;944962;148;27410;-75
2023/07/28 12:32:46;;;;;;;1.57;1.30;;;27.70;73.50;;;;;;944861;149;27342;-75
2023/07/28 12:35:13;;;;;;;1.22;1.17;;;27.70;73.50;;;;;;944113;149;27408;-76
2023/07/28 12:37:39;;;;;;;1.32;1.22;;;27.80;74.20;;;;;;944989;149;27334;-76
2023/07/28 12:40:06;;;;;;;2.00;1.05;;;27.90;74.20;;;;;;945213;149;27330;-75
2023/07/28 12:42:32;;;;;;;0.95;0.95;;;28.00;74.40;;;;;;945072;149;27352;-75
2023/07/28 12:44:59;;;;;;;1.45;1.20;;;28.10;74.40;;;;;;945646;149;27353;-75
2023/07/28 12:47:26;;;;;;;1.10;1.10;;;28.20;74.60;;;;;;945150;149;27349;-75